sensor_id;sensor_type;location;lat;lon;timestamp;temperature;humidity
5154;DHT22;2595;53.584;10.084;2023-02-05T00:00:24;2.20;99.90
5154;DHT22;2595;53.584;10.084;2023-02-05T00:02:49;2.20;99.90
5154;DHT22;2595;53.584;10.084;2023-02-05T00:05:15;2.20;99.90
5154;DHT22;2595;53.584;10.084;2023-02-05T00:07:40;2.20;99.90
5154;DHT22;2595;53.584;10.084;2023-02-05T00:10:06;2.20;99.90
5154;DHT22;2595;53.584;10.084;2023-02-05T00:12:32;2.30;99.90
5154;DHT22;2595;53.584;10.084;2023-02-05T00:14:57;2.30;99.90
5154;DHT22;2595;53.584;10.084;2023-02-05T00:17:23;2.30;99.90
5154;DHT22;2595;53.584;10.084;2023-02-05T00:19:49;2.30;99.90
5154;DHT22;2595;53.584;10.084;2023-02-05T00:22:14;2.30;99.90
5154;DHT22;2595;53.584;10.084;2023-02-05T00:24:40;2.40;99.90
5154;DHT22;2595;53.584;10.084;2023-02-05T00:27:06;2.40;99.90
5154;DHT22;2595;53.584;10.084;2023-02-05T00:29:32;2.40;99.90
5154;DHT22;2595;53.584;10.084;2023-02-05T00:31:57;2.50;99.90
5154;DHT22;2595;53.584;10.084;2023-02-05T00:34:23;2.40;99.90
5154;DHT22;2595;53.584;10.084;2023-02-05T00:36:48;2.40;99.90
5154;DHT22;2595;53.584;10.084;2023-02-05T00:39:14;2.30;99.90
5154;DHT22;2595;53.584;10.084;2023-02-05T00:41:40;2.40;99.90
5154;DHT22;2595;53.584;10.084;2023-02-05T00:44:06;2.40;99.90
5154;DHT22;2595;53.584;10.084;2023-02-05T00:46:32;2.40;99.90
5154;DHT22;2595;53.584;10.084;2023-02-05T00:48:57;2.40;99.90
5154;DHT22;2595;53.584;10.084;2023-02-05T00:51:23;2.40;99.90
5154;DHT22;2595;53.584;10.084;2023-02-05T00:53:49;2.40;99.90
5154;DHT22;2595;53.584;10.084;2023-02-05T00:56:14;2.40;99.90
5154;DHT22;2595;53.584;10.084;2023-02-05T00:58:40;2.40;99.90
5154;DHT22;2595;53.584;10.084;2023-02-05T01:01:12;2.30;99.90
5154;DHT22;2595;53.584;10.084;2023-02-05T01:03:39;2.30;99.90
5154;DHT22;2595;53.584;10.084;2023-02-05T01:06:04;2.30;99.90
5154;DHT22;2595;53.584;10.084;2023-02-05T01:08:30;2.20;99.90
5154;DHT22;2595;53.584;10.084;2023-02-05T01:10:55;2.30;99.90
5154;DHT22;2595;53.584;10.084;2023-02-05T01:13:23;2.20;99.90
5154;DHT22;2595;53.584;10.084;2023-02-05T01:15:49;2.20;99.90
5154;DHT22;2595;53.584;10.084;2023-02-05T01:18:15;2.10;99.90
5154;DHT22;2595;53.584;10.084;2023-02-05T01:20:41;2.10;99.90
5154;DHT22;2595;53.584;10.084;2023-02-05T01:23:07;2.10;99.90
5154;DHT22;2595;53.584;10.084;2023-02-05T01:25:33;2.10;99.90
5154;DHT22;2595;53.584;10.084;2023-02-05T01:27:58;2.10;99.90
5154;DHT22;2595;53.584;10.084;2023-02-05T01:30:24;2.10;99.90
5154;DHT22;2595;53.584;10.084;2023-02-05T01:32:50;2.10;99.90
5154;DHT22;2595;53.584;10.084;2023-02-05T01:35:15;2.10;99.90
5154;DHT22;2595;53.584;10.084;2023-02-05T01:37:41;2.10;99.90
5154;DHT22;2595;53.584;10.084;2023-02-05T01:40:07;2.10;99.90
5154;DHT22;2595;53.584;10.084;2023-02-05T01:42:33;2.10;99.90
5154;DHT22;2595;53.584;10.084;2023-02-05T01:47:57;2.00;99.90
5154;DHT22;2595;53.584;10.084;2023-02-05T01:50:33;2.00;99.90
5154;DHT22;2595;53.584;10.084;2023-02-05T01:53:04;2.00;99.90
5154;DHT22;2595;53.584;10.084;2023-02-05T01:55:31;2.00;99.90
5154;DHT22;2595;53.584;10.084;2023-02-05T01:57:59;2.00;99.90
5154;DHT22;2595;53.584;10.084;2023-02-05T02:00:25;2.00;99.90
5154;DHT22;2595;53.584;10.084;2023-02-05T02:02:51;2.00;99.90
5154;DHT22;2595;53.584;10.084;2023-02-05T02:05:17;2.00;99.90
5154;DHT22;2595;53.584;10.084;2023-02-05T02:07:43;1.90;99.90
5154;DHT22;2595;53.584;10.084;2023-02-05T02:10:11;1.90;99.90
5154;DHT22;2595;53.584;10.084;2023-02-05T02:12:40;1.90;99.90
5154;DHT22;2595;53.584;10.084;2023-02-05T02:15:11;1.90;99.90
5154;DHT22;2595;53.584;10.084;2023-02-05T02:17:40;1.90;99.90
5154;DHT22;2595;53.584;10.084;2023-02-05T02:20:30;1.90;99.90
5154;DHT22;2595;53.584;10.084;2023-02-05T02:28:57;1.80;99.90
5154;DHT22;2595;53.584;10.084;2023-02-05T02:31:29;1.80;99.90
5154;DHT22;2595;53.584;10.084;2023-02-05T02:36:40;1.90;99.90
5154;DHT22;2595;53.584;10.084;2023-02-05T02:39:40;1.90;99.90
5154;DHT22;2595;53.584;10.084;2023-02-05T02:42:16;1.90;99.90
5154;DHT22;2595;53.584;10.084;2023-02-05T02:44:50;1.90;99.90
5154;DHT22;2595;53.584;10.084;2023-02-05T02:47:22;1.90;99.90
5154;DHT22;2595;53.584;10.084;2023-02-05T02:49:56;1.90;99.90
5154;DHT22;2595;53.584;10.084;2023-02-05T02:52:24;1.90;99.90
5154;DHT22;2595;53.584;10.084;2023-02-05T02:54:55;1.80;99.90
5154;DHT22;2595;53.584;10.084;2023-02-05T03:00:44;1.70;99.90
5154;DHT22;2595;53.584;10.084;2023-02-05T03:03:12;1.70;99.90
5154;DHT22;2595;53.584;10.084;2023-02-05T03:05:41;1.70;99.90
5154;DHT22;2595;53.584;10.084;2023-02-05T03:08:41;1.70;99.90
5154;DHT22;2595;53.584;10.084;2023-02-05T03:11:13;1.70;99.90
5154;DHT22;2595;53.584;10.084;2023-02-05T03:13:41;1.70;99.90
5154;DHT22;2595;53.584;10.084;2023-02-05T03:16:08;1.60;99.90
5154;DHT22;2595;53.584;10.084;2023-02-05T03:18:34;1.70;99.90
5154;DHT22;2595;53.584;10.084;2023-02-05T03:21:08;1.60;99.90
5154;DHT22;2595;53.584;10.084;2023-02-05T03:23:36;1.70;99.90
5154;DHT22;2595;53.584;10.084;2023-02-05T03:26:02;1.60;99.90
5154;DHT22;2595;53.584;10.084;2023-02-05T03:28:28;1.60;99.90
5154;DHT22;2595;53.584;10.084;2023-02-05T03:31:05;1.60;99.90
5154;DHT22;2595;53.584;10.084;2023-02-05T03:36:54;1.60;99.90
5154;DHT22;2595;53.584;10.084;2023-02-05T03:40:01;1.60;99.90
5154;DHT22;2595;53.584;10.084;2023-02-05T03:55:49;1.60;99.90
5154;DHT22;2595;53.584;10.084;2023-02-05T03:58:25;1.60;99.90
5154;DHT22;2595;53.584;10.084;2023-02-05T04:00:52;1.60;99.90
5154;DHT22;2595;53.584;10.084;2023-02-05T04:03:17;1.60;99.90
5154;DHT22;2595;53.584;10.084;2023-02-05T04:05:43;1.60;99.90
5154;DHT22;2595;53.584;10.084;2023-02-05T04:08:09;1.60;99.90
5154;DHT22;2595;53.584;10.084;2023-02-05T04:10:34;1.60;99.90
5154;DHT22;2595;53.584;10.084;2023-02-05T04:13:00;1.50;99.90
5154;DHT22;2595;53.584;10.084;2023-02-05T04:15:25;1.50;99.90
5154;DHT22;2595;53.584;10.084;2023-02-05T04:17:51;1.50;99.90
5154;DHT22;2595;53.584;10.084;2023-02-05T04:20:17;1.60;99.90
5154;DHT22;2595;53.584;10.084;2023-02-05T04:22:42;1.50;99.90
5154;DHT22;2595;53.584;10.084;2023-02-05T04:25:08;1.50;99.90
5154;DHT22;2595;53.584;10.084;2023-02-05T04:27:33;1.50;99.90
5154;DHT22;2595;53.584;10.084;2023-02-05T04:29:59;1.50;99.90
5154;DHT22;2595;53.584;10.084;2023-02-05T04:32:25;1.50;99.90
5154;DHT22;2595;53.584;10.084;2023-02-05T04:34:50;1.50;99.90
5154;DHT22;2595;53.584;10.084;2023-02-05T04:37:16;1.50;99.90
5154;DHT22;2595;53.584;10.084;2023-02-05T04:39:41;1.60;99.90
5154;DHT22;2595;53.584;10.084;2023-02-05T04:42:07;1.60;99.90
5154;DHT22;2595;53.584;10.084;2023-02-05T04:44:33;1.60;99.90
5154;DHT22;2595;53.584;10.084;2023-02-05T04:46:58;1.60;99.90
5154;DHT22;2595;53.584;10.084;2023-02-05T04:49:24;1.60;99.90
5154;DHT22;2595;53.584;10.084;2023-02-05T04:51:49;1.60;99.90
5154;DHT22;2595;53.584;10.084;2023-02-05T04:54:15;1.60;99.90
5154;DHT22;2595;53.584;10.084;2023-02-05T04:56:40;1.60;99.90
5154;DHT22;2595;53.584;10.084;2023-02-05T04:59:06;1.60;99.90
5154;DHT22;2595;53.584;10.084;2023-02-05T05:01:32;1.60;99.90
5154;DHT22;2595;53.584;10.084;2023-02-05T05:03:57;1.60;99.90
5154;DHT22;2595;53.584;10.084;2023-02-05T05:06:23;1.60;99.90
5154;DHT22;2595;53.584;10.084;2023-02-05T05:08:48;1.60;99.90
5154;DHT22;2595;53.584;10.084;2023-02-05T05:11:16;1.60;99.90
5154;DHT22;2595;53.584;10.084;2023-02-05T05:13:42;1.60;99.90
5154;DHT22;2595;53.584;10.084;2023-02-05T05:16:09;1.60;99.90
5154;DHT22;2595;53.584;10.084;2023-02-05T05:18:36;1.60;99.90
5154;DHT22;2595;53.584;10.084;2023-02-05T05:21:04;1.60;99.90
5154;DHT22;2595;53.584;10.084;2023-02-05T05:23:30;1.60;99.90
5154;DHT22;2595;53.584;10.084;2023-02-05T05:25:56;1.60;99.90
5154;DHT22;2595;53.584;10.084;2023-02-05T05:28:22;1.60;99.90
5154;DHT22;2595;53.584;10.084;2023-02-05T05:30:47;1.70;99.90
5154;DHT22;2595;53.584;10.084;2023-02-05T05:33:13;1.70;99.90
5154;DHT22;2595;53.584;10.084;2023-02-05T05:35:39;1.70;99.90
5154;DHT22;2595;53.584;10.084;2023-02-05T05:38:05;1.70;99.90
5154;DHT22;2595;53.584;10.084;2023-02-05T05:40:31;1.70;99.90
5154;DHT22;2595;53.584;10.084;2023-02-05T05:43:17;1.70;99.90
5154;DHT22;2595;53.584;10.084;2023-02-05T05:46:03;1.70;99.90
5154;DHT22;2595;53.584;10.084;2023-02-05T05:48:29;1.70;99.90
5154;DHT22;2595;53.584;10.084;2023-02-05T05:50:55;1.70;99.90
5154;DHT22;2595;53.584;10.084;2023-02-05T05:53:20;1.70;99.90
5154;DHT22;2595;53.584;10.084;2023-02-05T05:55:46;1.70;99.90
5154;DHT22;2595;53.584;10.084;2023-02-05T05:58:12;1.70;99.90
5154;DHT22;2595;53.584;10.084;2023-02-05T06:00:38;1.70;99.90
5154;DHT22;2595;53.584;10.084;2023-02-05T06:03:05;1.70;99.90
5154;DHT22;2595;53.584;10.084;2023-02-05T06:05:31;1.70;99.90
5154;DHT22;2595;53.584;10.084;2023-02-05T06:07:57;1.70;99.90
5154;DHT22;2595;53.584;10.084;2023-02-05T06:10:23;1.80;99.90
5154;DHT22;2595;53.584;10.084;2023-02-05T06:12:49;1.80;99.90
5154;DHT22;2595;53.584;10.084;2023-02-05T06:15:17;1.80;99.90
5154;DHT22;2595;53.584;10.084;2023-02-05T06:17:43;1.80;99.90
5154;DHT22;2595;53.584;10.084;2023-02-05T06:20:09;1.70;99.90
5154;DHT22;2595;53.584;10.084;2023-02-05T06:22:35;1.70;99.90
5154;DHT22;2595;53.584;10.084;2023-02-05T06:25:01;1.70;99.90
5154;DHT22;2595;53.584;10.084;2023-02-05T06:27:27;1.80;99.90
5154;DHT22;2595;53.584;10.084;2023-02-05T06:29:52;1.80;99.90
5154;DHT22;2595;53.584;10.084;2023-02-05T06:32:18;1.80;99.90
5154;DHT22;2595;53.584;10.084;2023-02-05T06:34:44;1.80;99.90
5154;DHT22;2595;53.584;10.084;2023-02-05T06:37:09;1.80;99.90
5154;DHT22;2595;53.584;10.084;2023-02-05T06:39:35;1.80;99.90
5154;DHT22;2595;53.584;10.084;2023-02-05T06:42:01;1.70;99.90
5154;DHT22;2595;53.584;10.084;2023-02-05T06:44:26;1.70;99.90
5154;DHT22;2595;53.584;10.084;2023-02-05T06:46:52;1.70;99.90
5154;DHT22;2595;53.584;10.084;2023-02-05T06:49:17;1.70;99.90
5154;DHT22;2595;53.584;10.084;2023-02-05T06:51:43;1.80;99.90
5154;DHT22;2595;53.584;10.084;2023-02-05T06:54:08;1.70;99.90
5154;DHT22;2595;53.584;10.084;2023-02-05T06:56:34;1.70;99.90
5154;DHT22;2595;53.584;10.084;2023-02-05T06:59:00;1.70;99.90
5154;DHT22;2595;53.584;10.084;2023-02-05T07:01:25;1.60;99.90
5154;DHT22;2595;53.584;10.084;2023-02-05T07:03:51;1.60;99.90
5154;DHT22;2595;53.584;10.084;2023-02-05T07:06:20;1.70;99.90
5154;DHT22;2595;53.584;10.084;2023-02-05T07:08:48;1.60;99.90
5154;DHT22;2595;53.584;10.084;2023-02-05T07:11:14;1.70;99.90
5154;DHT22;2595;53.584;10.084;2023-02-05T07:13:40;1.60;99.90
5154;DHT22;2595;53.584;10.084;2023-02-05T07:16:06;1.60;99.90
5154;DHT22;2595;53.584;10.084;2023-02-05T07:18:32;1.60;99.90
5154;DHT22;2595;53.584;10.084;2023-02-05T07:20:58;1.60;99.90
5154;DHT22;2595;53.584;10.084;2023-02-05T07:23:24;1.60;99.90
5154;DHT22;2595;53.584;10.084;2023-02-05T07:25:50;1.60;99.90
5154;DHT22;2595;53.584;10.084;2023-02-05T07:28:15;1.50;99.90
5154;DHT22;2595;53.584;10.084;2023-02-05T07:30:41;1.50;99.90
5154;DHT22;2595;53.584;10.084;2023-02-05T07:33:07;1.50;99.90
5154;DHT22;2595;53.584;10.084;2023-02-05T07:35:35;1.50;99.90
5154;DHT22;2595;53.584;10.084;2023-02-05T07:38:01;1.50;99.90
5154;DHT22;2595;53.584;10.084;2023-02-05T07:40:27;1.50;99.90
5154;DHT22;2595;53.584;10.084;2023-02-05T07:42:52;1.50;99.90
5154;DHT22;2595;53.584;10.084;2023-02-05T07:45:18;1.50;99.90
5154;DHT22;2595;53.584;10.084;2023-02-05T07:47:44;1.50;99.90
5154;DHT22;2595;53.584;10.084;2023-02-05T07:50:10;1.50;99.90
5154;DHT22;2595;53.584;10.084;2023-02-05T07:52:35;1.60;99.90
5154;DHT22;2595;53.584;10.084;2023-02-05T07:55:01;1.60;99.90
5154;DHT22;2595;53.584;10.084;2023-02-05T07:57:26;1.60;99.90
5154;DHT22;2595;53.584;10.084;2023-02-05T07:59:52;1.60;99.90
5154;DHT22;2595;53.584;10.084;2023-02-05T08:02:18;1.60;99.90
5154;DHT22;2595;53.584;10.084;2023-02-05T08:04:43;1.60;99.90
5154;DHT22;2595;53.584;10.084;2023-02-05T08:07:12;1.70;99.90
5154;DHT22;2595;53.584;10.084;2023-02-05T08:09:38;1.70;99.90
5154;DHT22;2595;53.584;10.084;2023-02-05T08:12:04;1.70;99.90
5154;DHT22;2595;53.584;10.084;2023-02-05T08:14:30;1.80;99.90
5154;DHT22;2595;53.584;10.084;2023-02-05T08:16:57;1.80;99.90
5154;DHT22;2595;53.584;10.084;2023-02-05T08:19:23;1.80;99.90
5154;DHT22;2595;53.584;10.084;2023-02-05T08:21:49;1.90;99.90
5154;DHT22;2595;53.584;10.084;2023-02-05T08:24:15;1.90;99.90
5154;DHT22;2595;53.584;10.084;2023-02-05T08:26:41;1.80;99.90
5154;DHT22;2595;53.584;10.084;2023-02-05T08:29:07;1.90;99.90
5154;DHT22;2595;53.584;10.084;2023-02-05T08:31:34;1.90;99.90
5154;DHT22;2595;53.584;10.084;2023-02-05T08:34:00;1.90;99.90
5154;DHT22;2595;53.584;10.084;2023-02-05T08:36:26;1.90;99.90
5154;DHT22;2595;53.584;10.084;2023-02-05T08:38:52;1.90;99.90
5154;DHT22;2595;53.584;10.084;2023-02-05T08:41:18;1.90;99.90
5154;DHT22;2595;53.584;10.084;2023-02-05T08:43:46;2.00;99.90
5154;DHT22;2595;53.584;10.084;2023-02-05T08:46:15;2.00;99.90
5154;DHT22;2595;53.584;10.084;2023-02-05T08:48:40;2.00;99.90
5154;DHT22;2595;53.584;10.084;2023-02-05T08:51:09;2.00;99.90
5154;DHT22;2595;53.584;10.084;2023-02-05T08:53:34;2.00;99.90
5154;DHT22;2595;53.584;10.084;2023-02-05T08:56:02;2.00;99.90
5154;DHT22;2595;53.584;10.084;2023-02-05T08:58:30;2.00;99.90
5154;DHT22;2595;53.584;10.084;2023-02-05T09:01:04;2.10;99.90
5154;DHT22;2595;53.584;10.084;2023-02-05T09:03:30;2.10;99.90
5154;DHT22;2595;53.584;10.084;2023-02-05T09:05:57;2.10;99.90
5154;DHT22;2595;53.584;10.084;2023-02-05T09:08:24;2.10;99.90
5154;DHT22;2595;53.584;10.084;2023-02-05T09:10:50;2.10;99.90
5154;DHT22;2595;53.584;10.084;2023-02-05T09:13:15;2.10;99.90
5154;DHT22;2595;53.584;10.084;2023-02-05T09:15:42;2.10;99.90
5154;DHT22;2595;53.584;10.084;2023-02-05T09:18:08;2.10;99.90
5154;DHT22;2595;53.584;10.084;2023-02-05T09:20:34;2.10;99.90
5154;DHT22;2595;53.584;10.084;2023-02-05T09:22:59;2.10;99.90
5154;DHT22;2595;53.584;10.084;2023-02-05T09:25:25;2.10;99.90
5154;DHT22;2595;53.584;10.084;2023-02-05T09:27:53;2.20;99.90
5154;DHT22;2595;53.584;10.084;2023-02-05T09:30:19;2.20;99.90
5154;DHT22;2595;53.584;10.084;2023-02-05T09:32:44;2.20;99.90
5154;DHT22;2595;53.584;10.084;2023-02-05T09:35:10;2.30;99.90
5154;DHT22;2595;53.584;10.084;2023-02-05T09:37:35;2.30;99.90
5154;DHT22;2595;53.584;10.084;2023-02-05T09:40:03;2.30;99.90
5154;DHT22;2595;53.584;10.084;2023-02-05T09:47:56;2.40;99.90
5154;DHT22;2595;53.584;10.084;2023-02-05T09:50:26;2.40;99.90
5154;DHT22;2595;53.584;10.084;2023-02-05T09:53:00;2.40;99.90
5154;DHT22;2595;53.584;10.084;2023-02-05T09:55:30;2.40;99.90
5154;DHT22;2595;53.584;10.084;2023-02-05T09:58:03;2.40;99.90
5154;DHT22;2595;53.584;10.084;2023-02-05T10:00:42;2.40;99.90
5154;DHT22;2595;53.584;10.084;2023-02-05T10:03:26;2.40;99.90
5154;DHT22;2595;53.584;10.084;2023-02-05T10:11:31;2.40;99.90
5154;DHT22;2595;53.584;10.084;2023-02-05T10:14:09;2.50;99.90
5154;DHT22;2595;53.584;10.084;2023-02-05T10:25:37;2.40;99.90
5154;DHT22;2595;53.584;10.084;2023-02-05T10:28:29;2.50;99.90
5154;DHT22;2595;53.584;10.084;2023-02-05T10:34:03;2.50;99.90
5154;DHT22;2595;53.584;10.084;2023-02-05T10:36:34;2.50;99.90
5154;DHT22;2595;53.584;10.084;2023-02-05T10:39:00;2.50;99.90
5154;DHT22;2595;53.584;10.084;2023-02-05T10:41:55;2.50;99.90
5154;DHT22;2595;53.584;10.084;2023-02-05T10:44:29;2.50;99.90
5154;DHT22;2595;53.584;10.084;2023-02-05T10:47:15;2.50;99.90
5154;DHT22;2595;53.584;10.084;2023-02-05T10:50:13;2.50;99.90
5154;DHT22;2595;53.584;10.084;2023-02-05T10:52:39;2.60;99.90
5154;DHT22;2595;53.584;10.084;2023-02-05T10:55:04;2.60;99.90
5154;DHT22;2595;53.584;10.084;2023-02-05T10:57:33;2.60;99.90
5154;DHT22;2595;53.584;10.084;2023-02-05T11:00:05;2.70;99.90
5154;DHT22;2595;53.584;10.084;2023-02-05T11:02:39;2.70;99.90
5154;DHT22;2595;53.584;10.084;2023-02-05T11:05:18;2.70;99.90
5154;DHT22;2595;53.584;10.084;2023-02-05T11:07:46;2.80;99.90
5154;DHT22;2595;53.584;10.084;2023-02-05T11:10:29;2.80;99.90
5154;DHT22;2595;53.584;10.084;2023-02-05T11:13:18;2.80;99.90
5154;DHT22;2595;53.584;10.084;2023-02-05T11:16:05;2.90;99.90
5154;DHT22;2595;53.584;10.084;2023-02-05T11:18:43;3.00;99.90
5154;DHT22;2595;53.584;10.084;2023-02-05T11:21:11;3.00;99.90
5154;DHT22;2595;53.584;10.084;2023-02-05T11:23:38;3.00;99.90
5154;DHT22;2595;53.584;10.084;2023-02-05T11:26:19;3.00;99.90
5154;DHT22;2595;53.584;10.084;2023-02-05T11:28:46;3.00;99.90
5154;DHT22;2595;53.584;10.084;2023-02-05T11:33:44;3.10;99.90
5154;DHT22;2595;53.584;10.084;2023-02-05T11:36:21;3.10;99.90
5154;DHT22;2595;53.584;10.084;2023-02-05T11:38:54;3.10;99.90
5154;DHT22;2595;53.584;10.084;2023-02-05T11:41:33;3.10;99.90
5154;DHT22;2595;53.584;10.084;2023-02-05T11:44:41;3.10;99.90
5154;DHT22;2595;53.584;10.084;2023-02-05T11:47:28;3.10;99.90
5154;DHT22;2595;53.584;10.084;2023-02-05T11:49:54;3.10;99.90
5154;DHT22;2595;53.584;10.084;2023-02-05T11:52:28;3.10;99.90
5154;DHT22;2595;53.584;10.084;2023-02-05T11:54:55;3.10;99.90
5154;DHT22;2595;53.584;10.084;2023-02-05T12:10:46;3.30;99.90
5154;DHT22;2595;53.584;10.084;2023-02-05T12:35:12;3.40;99.90
5154;DHT22;2595;53.584;10.084;2023-02-05T12:37:54;3.40;99.90
5154;DHT22;2595;53.584;10.084;2023-02-05T12:43:43;3.50;99.90
5154;DHT22;2595;53.584;10.084;2023-02-05T12:49:19;3.50;99.90
5154;DHT22;2595;53.584;10.084;2023-02-05T12:57:03;3.50;99.90
5154;DHT22;2595;53.584;10.084;2023-02-05T12:59:47;3.60;99.90
5154;DHT22;2595;53.584;10.084;2023-02-05T13:05:01;3.60;99.90
5154;DHT22;2595;53.584;10.084;2023-02-05T13:07:35;3.60;99.90
5154;DHT22;2595;53.584;10.084;2023-02-05T13:12:42;3.70;99.90
5154;DHT22;2595;53.584;10.084;2023-02-05T13:15:22;3.70;99.90
5154;DHT22;2595;53.584;10.084;2023-02-05T13:20:47;3.80;99.90
5154;DHT22;2595;53.584;10.084;2023-02-05T13:23:33;3.70;99.90
5154;DHT22;2595;53.584;10.084;2023-02-05T13:26:26;3.80;99.90
5154;DHT22;2595;53.584;10.084;2023-02-05T13:29:13;3.70;99.90
5154;DHT22;2595;53.584;10.084;2023-02-05T13:31:46;3.70;99.90
5154;DHT22;2595;53.584;10.084;2023-02-05T13:34:14;3.70;99.90
5154;DHT22;2595;53.584;10.084;2023-02-05T13:36:54;3.70;99.90
5154;DHT22;2595;53.584;10.084;2023-02-05T13:42:06;3.70;99.90
5154;DHT22;2595;53.584;10.084;2023-02-05T13:58:08;3.60;99.90
5154;DHT22;2595;53.584;10.084;2023-02-05T14:00:35;3.70;99.90
5154;DHT22;2595;53.584;10.084;2023-02-05T14:03:03;3.70;99.90
5154;DHT22;2595;53.584;10.084;2023-02-05T14:05:39;3.70;99.90
5154;DHT22;2595;53.584;10.084;2023-02-05T14:08:19;3.70;99.90
5154;DHT22;2595;53.584;10.084;2023-02-05T14:10:46;3.70;99.90
5154;DHT22;2595;53.584;10.084;2023-02-05T14:13:21;3.70;99.90
5154;DHT22;2595;53.584;10.084;2023-02-05T14:15:48;3.70;99.90
5154;DHT22;2595;53.584;10.084;2023-02-05T14:23:57;3.60;99.90
5154;DHT22;2595;53.584;10.084;2023-02-05T14:26:42;3.60;99.90
5154;DHT22;2595;53.584;10.084;2023-02-05T14:29:43;3.60;99.90
5154;DHT22;2595;53.584;10.084;2023-02-05T14:32:11;3.60;99.90
5154;DHT22;2595;53.584;10.084;2023-02-05T14:37:02;3.70;99.90
5154;DHT22;2595;53.584;10.084;2023-02-05T14:39:30;3.70;99.90
5154;DHT22;2595;53.584;10.084;2023-02-05T14:41:59;3.70;99.90
5154;DHT22;2595;53.584;10.084;2023-02-05T14:44:34;3.70;99.90
5154;DHT22;2595;53.584;10.084;2023-02-05T14:49:46;3.70;99.90
5154;DHT22;2595;53.584;10.084;2023-02-05T14:52:34;3.70;99.90
5154;DHT22;2595;53.584;10.084;2023-02-05T14:55:06;3.70;99.90
5154;DHT22;2595;53.584;10.084;2023-02-05T14:58:00;3.70;99.90
5154;DHT22;2595;53.584;10.084;2023-02-05T15:00:36;3.70;99.90
5154;DHT22;2595;53.584;10.084;2023-02-05T15:05:46;3.70;99.90
5154;DHT22;2595;53.584;10.084;2023-02-05T15:20:00;3.70;99.90
5154;DHT22;2595;53.584;10.084;2023-02-05T15:22:50;3.70;99.90
5154;DHT22;2595;53.584;10.084;2023-02-05T15:25:35;3.70;99.90
5154;DHT22;2595;53.584;10.084;2023-02-05T15:28:07;3.70;99.90
5154;DHT22;2595;53.584;10.084;2023-02-05T15:31:19;3.70;99.90
5154;DHT22;2595;53.584;10.084;2023-02-05T15:33:57;3.70;99.90
5154;DHT22;2595;53.584;10.084;2023-02-05T15:36:35;3.70;99.90
5154;DHT22;2595;53.584;10.084;2023-02-05T15:41:53;3.70;99.90
5154;DHT22;2595;53.584;10.084;2023-02-05T15:44:31;3.70;99.90
5154;DHT22;2595;53.584;10.084;2023-02-05T15:47:01;3.70;99.90
5154;DHT22;2595;53.584;10.084;2023-02-05T15:49:37;3.70;99.90
5154;DHT22;2595;53.584;10.084;2023-02-05T15:52:05;3.70;99.90
5154;DHT22;2595;53.584;10.084;2023-02-05T15:54:33;3.70;99.90
5154;DHT22;2595;53.584;10.084;2023-02-05T15:57:00;3.70;99.90
5154;DHT22;2595;53.584;10.084;2023-02-05T15:59:30;3.70;99.90
5154;DHT22;2595;53.584;10.084;2023-02-05T16:02:15;3.70;99.90
5154;DHT22;2595;53.584;10.084;2023-02-05T16:04:43;3.60;99.90
5154;DHT22;2595;53.584;10.084;2023-02-05T16:07:29;3.60;99.90
5154;DHT22;2595;53.584;10.084;2023-02-05T16:10:01;3.60;99.90
5154;DHT22;2595;53.584;10.084;2023-02-05T16:12:28;3.60;99.90
5154;DHT22;2595;53.584;10.084;2023-02-05T16:15:04;3.60;99.90
5154;DHT22;2595;53.584;10.084;2023-02-05T16:17:44;3.60;99.90
5154;DHT22;2595;53.584;10.084;2023-02-05T16:20:23;3.60;99.90
5154;DHT22;2595;53.584;10.084;2023-02-05T16:23:27;3.70;99.90
5154;DHT22;2595;53.584;10.084;2023-02-05T16:26:01;3.70;99.90
5154;DHT22;2595;53.584;10.084;2023-02-05T16:28:45;3.70;99.90
5154;DHT22;2595;53.584;10.084;2023-02-05T16:31:20;3.80;99.90
5154;DHT22;2595;53.584;10.084;2023-02-05T16:33:50;3.80;99.90
5154;DHT22;2595;53.584;10.084;2023-02-05T16:36:22;3.70;99.90
5154;DHT22;2595;53.584;10.084;2023-02-05T16:38:51;3.70;99.90
5154;DHT22;2595;53.584;10.084;2023-02-05T16:41:30;3.70;99.90
5154;DHT22;2595;53.584;10.084;2023-02-05T16:43:59;3.80;99.90
5154;DHT22;2595;53.584;10.084;2023-02-05T16:46:29;3.70;99.90
5154;DHT22;2595;53.584;10.084;2023-02-05T16:48:57;3.80;99.90
5154;DHT22;2595;53.584;10.084;2023-02-05T16:56:38;3.80;99.90
5154;DHT22;2595;53.584;10.084;2023-02-05T16:59:18;3.70;99.90
5154;DHT22;2595;53.584;10.084;2023-02-05T17:01:47;3.80;99.90
5154;DHT22;2595;53.584;10.084;2023-02-05T17:04:35;3.70;99.90
5154;DHT22;2595;53.584;10.084;2023-02-05T17:07:13;3.70;99.90
5154;DHT22;2595;53.584;10.084;2023-02-05T17:09:40;3.70;99.90
5154;DHT22;2595;53.584;10.084;2023-02-05T17:14:55;3.60;99.90
5154;DHT22;2595;53.584;10.084;2023-02-05T17:17:21;3.70;99.90
5154;DHT22;2595;53.584;10.084;2023-02-05T17:22:30;3.70;99.90
5154;DHT22;2595;53.584;10.084;2023-02-05T17:24:57;3.60;99.90
5154;DHT22;2595;53.584;10.084;2023-02-05T17:27:27;3.60;99.90
5154;DHT22;2595;53.584;10.084;2023-02-05T17:29:54;3.60;99.90
5154;DHT22;2595;53.584;10.084;2023-02-05T17:32:20;3.60;99.90
5154;DHT22;2595;53.584;10.084;2023-02-05T17:34:47;3.60;99.90
5154;DHT22;2595;53.584;10.084;2023-02-05T17:37:13;3.70;99.90
5154;DHT22;2595;53.584;10.084;2023-02-05T17:39:39;3.60;99.90
5154;DHT22;2595;53.584;10.084;2023-02-05T17:42:06;3.70;99.90
5154;DHT22;2595;53.584;10.084;2023-02-05T17:44:36;3.70;99.90
5154;DHT22;2595;53.584;10.084;2023-02-05T17:47:03;3.60;99.90
5154;DHT22;2595;53.584;10.084;2023-02-05T17:49:32;3.60;99.90
5154;DHT22;2595;53.584;10.084;2023-02-05T17:51:57;3.60;99.90
5154;DHT22;2595;53.584;10.084;2023-02-05T17:54:24;3.60;99.90
5154;DHT22;2595;53.584;10.084;2023-02-05T17:56:51;3.70;99.90
5154;DHT22;2595;53.584;10.084;2023-02-05T17:59:19;3.70;99.90
5154;DHT22;2595;53.584;10.084;2023-02-05T18:01:46;3.70;99.90
5154;DHT22;2595;53.584;10.084;2023-02-05T18:04:12;3.70;99.90
5154;DHT22;2595;53.584;10.084;2023-02-05T18:06:39;3.70;99.90
5154;DHT22;2595;53.584;10.084;2023-02-05T18:09:05;3.70;99.90
5154;DHT22;2595;53.584;10.084;2023-02-05T18:11:31;3.70;99.90
5154;DHT22;2595;53.584;10.084;2023-02-05T18:13:56;3.70;99.90
5154;DHT22;2595;53.584;10.084;2023-02-05T18:16:22;3.70;99.90
5154;DHT22;2595;53.584;10.084;2023-02-05T18:18:48;3.70;99.90
5154;DHT22;2595;53.584;10.084;2023-02-05T18:21:14;3.70;99.90
5154;DHT22;2595;53.584;10.084;2023-02-05T18:23:40;3.80;99.90
5154;DHT22;2595;53.584;10.084;2023-02-05T18:26:06;3.80;99.90
5154;DHT22;2595;53.584;10.084;2023-02-05T18:28:33;3.80;99.90
5154;DHT22;2595;53.584;10.084;2023-02-05T18:31:01;3.80;99.90
5154;DHT22;2595;53.584;10.084;2023-02-05T18:33:27;3.80;99.90
5154;DHT22;2595;53.584;10.084;2023-02-05T18:36:01;3.80;99.90
5154;DHT22;2595;53.584;10.084;2023-02-05T18:38:29;3.80;99.90
5154;DHT22;2595;53.584;10.084;2023-02-05T18:41:12;3.70;99.90
5154;DHT22;2595;53.584;10.084;2023-02-05T18:43:38;3.70;99.90
5154;DHT22;2595;53.584;10.084;2023-02-05T18:46:12;3.60;99.90
5154;DHT22;2595;53.584;10.084;2023-02-05T18:48:38;3.70;99.90
5154;DHT22;2595;53.584;10.084;2023-02-05T18:51:12;3.60;99.90
5154;DHT22;2595;53.584;10.084;2023-02-05T18:53:39;3.60;99.90
5154;DHT22;2595;53.584;10.084;2023-02-05T18:56:27;3.60;99.90
5154;DHT22;2595;53.584;10.084;2023-02-05T18:59:00;3.60;99.90
5154;DHT22;2595;53.584;10.084;2023-02-05T19:01:32;3.70;99.90
5154;DHT22;2595;53.584;10.084;2023-02-05T19:04:02;3.70;99.90
5154;DHT22;2595;53.584;10.084;2023-02-05T19:06:29;3.70;99.90